Time;durP1;ratioP1;P1;durP2;ratioP2;P2;SDS_P1;SDS_P2;PMS_P1;PMS_P2;Temp;Humidity;BMP_temperature;BMP_pressure;BME280_temperature;BME280_humidity;BME280_pressure;Samples;Min_cycle;Max_cycle;Signal;HPM_P1;HPM_P2
2023/06/02 00:01:01;;;;;;;;;;;18.90;99.90;;;;;;5096183;28;20027;-63
2023/06/02 00:03:29;;;;;;;;;;;18.80;99.90;;;;;;5096454;28;19988;-63
2023/06/02 00:05:57;;;;;;;;;;;18.70;99.90;;;;;;5096081;28;20427;-62
2023/06/02 00:08:23;;;;;;;;;;;18.70;99.90;;;;;;5096577;28;20011;-65
2023/06/02 00:10:48;;;;;;;;;;;18.70;99.90;;;;;;5096301;28;19981;-65
2023/06/02 00:13:14;;;;;;;;;;;18.70;99.90;;;;;;5095982;28;20004;-65
2023/06/02 00:15:40;;;;;;;;;;;18.70;99.90;;;;;;5095992;28;20076;-65
2023/06/02 00:18:07;;;;;;;;;;;18.70;99.90;;;;;;5096069;28;19981;-65
2023/06/02 00:20:33;;;;;;;;;;;18.80;99.90;;;;;;5095985;28;19985;-65
2023/06/02 00:23:00;;;;;;;;;;;18.80;99.90;;;;;;5096280;28;19981;-65
2023/06/02 00:25:25;;;;;;;;;;;18.80;99.90;;;;;;5096246;28;20047;-62
2023/06/02 00:27:51;;;;;;;;;;;18.80;99.90;;;;;;5095823;28;20549;-65
2023/06/02 00:30:17;;;;;;;;;;;18.80;99.90;;;;;;5095740;28;20355;-64
2023/06/02 00:32:42;;;;;;;;;;;18.80;99.90;;;;;;5095779;28;20013;-62
2023/06/02 00:35:08;;;;;;;;;;;18.80;99.90;;;;;;5095689;28;19989;-62
2023/06/02 00:37:33;;;;;;;;;;;18.80;99.90;;;;;;5095880;28;20031;-63
2023/06/02 00:39:59;;;;;;;;;;;18.80;99.90;;;;;;5095680;28;19981;-63
2023/06/02 00:42:24;;;;;;;;;;;18.70;99.90;;;;;;5095613;28;19981;-63
2023/06/02 00:44:50;;;;;;;;;;;18.60;99.90;;;;;;5095915;28;20032;-63
2023/06/02 00:47:15;;;;;;;;;;;18.70;99.90;;;;;;5095846;28;20428;-65
2023/06/02 00:49:41;;;;;;;;;;;18.70;99.90;;;;;;5095464;28;20108;-60
2023/06/02 00:52:07;;;;;;;;;;;18.70;99.90;;;;;;5095374;28;20085;-62
2023/06/02 00:54:33;;;;;;;;;;;18.70;99.90;;;;;;5095303;28;20352;-65
2023/06/02 00:56:58;;;;;;;;;;;18.70;99.90;;;;;;5095492;28;19981;-65
2023/06/02 00:59:24;;;;;;;;;;;18.80;99.90;;;;;;5094933;28;20456;-64
2023/06/02 01:01:50;;;;;;;;;;;18.80;99.90;;;;;;5095164;28;20024;-62
2023/06/02 01:04:18;;;;;;;;;;;18.70;99.90;;;;;;5095145;28;19985;-65
2023/06/02 01:06:48;;;;;;;;;;;18.70;99.90;;;;;;5095178;28;19981;-65
2023/06/02 01:09:16;;;;;;;;;;;18.80;99.90;;;;;;5095252;28;20004;-62
2023/06/02 01:11:43;;;;;;;;;;;18.80;99.90;;;;;;5095167;28;20454;-62
2023/06/02 01:14:09;;;;;;;;;;;18.80;99.90;;;;;;5094656;28;20005;-62
2023/06/02 01:16:35;;;;;;;;;;;18.80;99.90;;;;;;5095104;28;19988;-62
2023/06/02 01:19:06;;;;;;;;;;;18.80;99.90;;;;;;5094380;28;19981;-65
2023/06/02 01:21:37;;;;;;;;;;;18.80;99.90;;;;;;5095122;28;20092;-62
2023/06/02 01:24:03;;;;;;;;;;;18.80;99.90;;;;;;5094855;28;20432;-64
2023/06/02 01:26:33;;;;;;;;;;;18.80;99.90;;;;;;5094850;28;20486;-65
2023/06/02 01:29:00;;;;;;;;;;;18.80;99.90;;;;;;5094506;28;19982;-62
2023/06/02 01:31:28;;;;;;;;;;;18.70;99.90;;;;;;5094693;28;19980;-63
2023/06/02 01:34:02;;;;;;;;;;;18.60;99.90;;;;;;5094591;28;20176;-61
2023/06/02 01:36:29;;;;;;;;;;;18.60;99.90;;;;;;5094642;28;19985;-62
2023/06/02 01:38:56;;;;;;;;;;;18.60;99.90;;;;;;5094610;28;19988;-63
2023/06/02 01:41:23;;;;;;;;;;;18.60;99.90;;;;;;5094577;28;19981;-65
2023/06/02 01:43:49;;;;;;;;;;;18.60;99.90;;;;;;5094588;28;19987;-64
2023/06/02 01:46:16;;;;;;;;;;;18.60;99.90;;;;;;5094490;28;20034;-65
2023/06/02 01:48:41;;;;;;;;;;;18.60;99.90;;;;;;5094511;28;19981;-63
2023/06/02 01:51:07;;;;;;;;;;;18.60;99.90;;;;;;5094293;28;19981;-63
2023/06/02 01:53:32;;;;;;;;;;;18.50;99.90;;;;;;5094336;28;20009;-63
2023/06/02 01:55:58;;;;;;;;;;;18.50;99.90;;;;;;5094296;28;19985;-61
2023/06/02 01:58:24;;;;;;;;;;;18.50;99.90;;;;;;5093932;28;20072;-62
2023/06/02 02:00:50;;;;;;;;;;;18.40;99.90;;;;;;5094142;28;20066;-62
2023/06/02 02:03:15;;;;;;;;;;;18.30;99.90;;;;;;5094560;28;20351;-63
2023/06/02 02:05:41;;;;;;;;;;;18.30;99.90;;;;;;5094045;28;20377;-65
2023/06/02 02:08:07;;;;;;;;;;;18.20;99.90;;;;;;5094222;28;20030;-65
2023/06/02 02:10:33;;;;;;;;;;;18.10;99.90;;;;;;5094330;28;20127;-61
2023/06/02 02:12:59;;;;;;;;;;;18.10;99.90;;;;;;5093711;28;20104;-62
2023/06/02 02:15:27;;;;;;;;;;;18.10;99.90;;;;;;5093947;28;19989;-65
2023/06/02 02:17:56;;;;;;;;;;;18.10;99.90;;;;;;5094236;28;20545;-63
2023/06/02 02:20:22;;;;;;;;;;;18.20;99.90;;;;;;5093893;28;19981;-63
2023/06/02 02:22:47;;;;;;;;;;;18.20;99.90;;;;;;5093924;28;19992;-61
2023/06/02 02:25:13;;;;;;;;;;;18.20;99.90;;;;;;5093925;28;19981;-64
2023/06/02 02:27:39;;;;;;;;;;;18.20;99.90;;;;;;5093652;28;19981;-65
2023/06/02 02:30:06;;;;;;;;;;;18.20;99.90;;;;;;5092824;28;19981;-63
2023/06/02 02:32:33;;;;;;;;;;;18.20;99.90;;;;;;5093871;28;19988;-63
2023/06/02 02:34:58;;;;;;;;;;;18.30;99.90;;;;;;5093808;28;19992;-62
2023/06/02 02:37:24;;;;;;;;;;;18.30;99.90;;;;;;5093651;28;20431;-62
2023/06/02 02:39:49;;;;;;;;;;;18.30;99.90;;;;;;5093948;28;19981;-65
2023/06/02 02:42:15;;;;;;;;;;;18.30;99.90;;;;;;5093562;28;20048;-62
2023/06/02 02:44:40;;;;;;;;;;;18.40;99.90;;;;;;5093904;28;19985;-62
2023/06/02 02:47:06;;;;;;;;;;;18.40;99.90;;;;;;5093604;28;19982;-64
2023/06/02 02:49:32;;;;;;;;;;;18.40;99.90;;;;;;5093698;28;20081;-65
2023/06/02 02:51:57;;;;;;;;;;;18.40;99.90;;;;;;5093597;28;20432;-63
2023/06/02 02:54:23;;;;;;;;;;;18.40;99.90;;;;;;5093664;28;20009;-64
2023/06/02 02:56:50;;;;;;;;;;;18.40;99.90;;;;;;5093425;28;19981;-63
2023/06/02 02:59:16;;;;;;;;;;;18.30;99.90;;;;;;5093525;28;20036;-63
2023/06/02 03:01:43;;;;;;;;;;;18.30;99.90;;;;;;5093327;28;20060;-63
2023/06/02 03:04:10;;;;;;;;;;;18.30;99.90;;;;;;5093535;28;20355;-64
2023/06/02 03:06:40;;;;;;;;;;;18.30;99.90;;;;;;5093477;28;19981;-61
2023/06/02 03:09:08;;;;;;;;;;;18.30;99.90;;;;;;5093573;28;20037;-62
2023/06/02 03:11:34;;;;;;;;;;;18.30;99.90;;;;;;5093219;28;19996;-64
2023/06/02 03:13:59;;;;;;;;;;;18.40;99.90;;;;;;5093440;28;20005;-61
2023/06/02 03:16:25;;;;;;;;;;;18.40;99.90;;;;;;5093537;28;20030;-62
2023/06/02 03:18:50;;;;;;;;;;;18.40;99.90;;;;;;5093502;28;20076;-62
2023/06/02 03:21:17;;;;;;;;;;;18.40;99.90;;;;;;5093360;28;20410;-63
2023/06/02 03:23:43;;;;;;;;;;;18.40;99.90;;;;;;5093475;28;19995;-64
2023/06/02 03:26:11;;;;;;;;;;;18.40;99.90;;;;;;5093156;28;20064;-62
2023/06/02 03:28:37;;;;;;;;;;;18.40;99.90;;;;;;5093310;28;19981;-64
2023/06/02 03:31:02;;;;;;;;;;;18.40;99.90;;;;;;5093480;28;19996;-63
2023/06/02 03:33:28;;;;;;;;;;;18.30;99.90;;;;;;5093235;28;20442;-63
2023/06/02 03:35:54;;;;;;;;;;;18.30;99.90;;;;;;5093164;28;19981;-63
2023/06/02 03:38:20;;;;;;;;;;;18.40;99.90;;;;;;5093298;28;19989;-65
2023/06/02 03:40:45;;;;;;;;;;;18.40;99.90;;;;;;5093495;28;20034;-61
2023/06/02 03:43:11;;;;;;;;;;;18.40;99.90;;;;;;5096793;28;20556;-63
2023/06/02 03:45:36;;;;;;;;;;;18.30;99.90;;;;;;5096738;28;20344;-64
2023/06/02 03:48:02;;;;;;;;;;;18.40;99.90;;;;;;5096689;28;19989;-62
2023/06/02 03:50:27;;;;;;;;;;;18.40;99.90;;;;;;5096783;28;20068;-65
2023/06/02 03:52:53;;;;;;;;;;;18.40;99.90;;;;;;5096373;28;20478;-63
2023/06/02 03:55:18;;;;;;;;;;;18.40;99.90;;;;;;5096488;28;20435;-64
2023/06/02 03:57:44;;;;;;;;;;;18.50;99.90;;;;;;5096550;28;20403;-62
2023/06/02 04:00:10;;;;;;;;;;;18.50;99.90;;;;;;5096515;28;20019;-65
2023/06/02 04:02:36;;;;;;;;;;;18.40;99.90;;;;;;5096672;28;20079;-62
2023/06/02 04:05:02;;;;;;;;;;;18.50;99.90;;;;;;5096395;28;20611;-65
2023/06/02 04:07:28;;;;;;;;;;;18.50;99.90;;;;;;5096236;28;20520;-63
2023/06/02 04:09:53;;;;;;;;;;;18.50;99.90;;;;;;5096185;28;20009;-65
2023/06/02 04:12:19;;;;;;;;;;;18.60;99.90;;;;;;5096388;28;19981;-63
2023/06/02 04:14:44;;;;;;;;;;;18.60;99.90;;;;;;5096198;28;20517;-65
2023/06/02 04:17:10;;;;;;;;;;;18.60;99.90;;;;;;5096201;28;19981;-62
2023/06/02 04:19:35;;;;;;;;;;;18.70;99.90;;;;;;5096657;28;19985;-64
2023/06/02 04:22:01;;;;;;;;;;;18.70;99.90;;;;;;5095907;28;20008;-63
2023/06/02 04:24:26;;;;;;;;;;;18.70;99.90;;;;;;5096064;28;19985;-65
2023/06/02 04:26:52;;;;;;;;;;;18.70;99.90;;;;;;5095895;28;20023;-65
2023/06/02 04:29:18;;;;;;;;;;;18.80;99.90;;;;;;5095916;28;19989;-65
2023/06/02 04:31:44;;;;;;;;;;;18.80;99.90;;;;;;5095911;28;19988;-63
2023/06/02 04:34:10;;;;;;;;;;;18.80;99.90;;;;;;5095620;28;20097;-64
2023/06/02 04:36:36;;;;;;;;;;;18.90;99.90;;;;;;5095718;28;19981;-63
2023/06/02 04:39:03;;;;;;;;;;;18.90;99.90;;;;;;5095819;28;19985;-63
2023/06/02 04:41:31;;;;;;;;;;;18.90;99.90;;;;;;5095876;28;19985;-64
2023/06/02 04:43:58;;;;;;;;;;;19.00;99.90;;;;;;5095476;28;19989;-63
2023/06/02 04:46:25;;;;;;;;;;;19.10;99.90;;;;;;5095646;28;20035;-64
2023/06/02 04:48:50;;;;;;;;;;;19.10;99.90;;;;;;5095428;28;20083;-64
2023/06/02 04:51:16;;;;;;;;;;;19.10;99.90;;;;;;5095257;28;20102;-63
2023/06/02 04:53:42;;;;;;;;;;;19.10;99.90;;;;;;5094400;28;20016;-65
2023/06/02 04:56:07;;;;;;;;;;;19.20;99.90;;;;;;5095400;28;19981;-64
2023/06/02 04:58:33;;;;;;;;;;;19.20;99.90;;;;;;5095230;28;19985;-64
2023/06/02 05:00:59;;;;;;;;;;;19.30;99.90;;;;;;5095109;28;20017;-64
2023/06/02 05:03:24;;;;;;;;;;;19.20;99.90;;;;;;5095257;28;19981;-62
2023/06/02 05:05:50;;;;;;;;;;;19.30;99.90;;;;;;5094873;28;20432;-62
2023/06/02 05:08:15;;;;;;;;;;;19.40;99.90;;;;;;5095137;28;19988;-63
2023/06/02 05:10:41;;;;;;;;;;;19.40;99.90;;;;;;5094958;28;19989;-65
2023/06/02 05:13:07;;;;;;;;;;;19.50;99.90;;;;;;5094619;28;20065;-65
2023/06/02 05:15:32;;;;;;;;;;;19.50;99.90;;;;;;5094802;28;19992;-62
2023/06/02 05:17:58;;;;;;;;;;;19.60;99.90;;;;;;5094827;28;20340;-65
2023/06/02 05:20:23;;;;;;;;;;;19.70;99.90;;;;;;5094453;28;19981;-64
2023/06/02 05:22:49;;;;;;;;;;;19.70;99.90;;;;;;5094895;28;20032;-65
2023/06/02 05:25:14;;;;;;;;;;;19.80;99.90;;;;;;5094761;28;20508;-62
2023/06/02 05:27:40;;;;;;;;;;;19.80;99.90;;;;;;5094537;28;20366;-66
2023/06/02 05:30:06;;;;;;;;;;;19.80;99.90;;;;;;5094422;28;19988;-64
2023/06/02 05:32:32;;;;;;;;;;;19.80;99.90;;;;;;5094345;28;19988;-63
2023/06/02 05:34:58;;;;;;;;;;;19.80;99.90;;;;;;5094347;28;19992;-66
2023/06/02 05:37:23;;;;;;;;;;;19.90;99.90;;;;;;5094329;28;19985;-64
2023/06/02 05:39:49;;;;;;;;;;;20.00;99.90;;;;;;5094563;28;19981;-62
2023/06/02 05:42:14;;;;;;;;;;;20.10;99.90;;;;;;5094350;28;19981;-65
2023/06/02 05:44:40;;;;;;;;;;;20.20;99.90;;;;;;5094221;28;20070;-63
2023/06/02 05:47:06;;;;;;;;;;;20.20;99.90;;;;;;5094190;28;20004;-64
2023/06/02 05:49:31;;;;;;;;;;;20.20;99.90;;;;;;5094162;28;20043;-62
2023/06/02 05:51:57;;;;;;;;;;;20.30;99.90;;;;;;5093804;28;19989;-63
2023/06/02 05:54:22;;;;;;;;;;;20.40;99.90;;;;;;5093911;28;20044;-65
2023/06/02 05:56:48;;;;;;;;;;;20.30;99.90;;;;;;5094232;28;20462;-63
2023/06/02 05:59:13;;;;;;;;;;;20.30;99.90;;;;;;5094037;28;20462;-65
2023/06/02 06:01:39;;;;;;;;;;;20.40;99.90;;;;;;5093709;28;20067;-64
2023/06/02 06:04:04;;;;;;;;;;;20.40;99.90;;;;;;5093584;28;20034;-65
2023/06/02 06:06:30;;;;;;;;;;;20.50;99.90;;;;;;5093814;28;19981;-65
2023/06/02 06:08:56;;;;;;;;;;;20.50;99.90;;;;;;5093195;28;20380;-65
2023/06/02 06:11:22;;;;;;;;;;;20.60;99.90;;;;;;5093280;28;20438;-63
2023/06/02 06:13:48;;;;;;;;;;;20.60;99.90;;;;;;5093110;28;20047;-62
2023/06/02 06:16:13;;;;;;;;;;;20.60;99.90;;;;;;5089835;28;19989;-64
2023/06/02 06:18:39;;;;;;;;;;;20.60;99.90;;;;;;5089771;28;20079;-66
2023/06/02 06:21:04;;;;;;;;;;;20.70;99.90;;;;;;5093207;28;20060;-62
2023/06/02 06:23:30;;;;;;;;;;;20.80;99.90;;;;;;5092479;28;20504;-66
2023/06/02 06:25:55;;;;;;;;;;;20.90;99.90;;;;;;5092135;28;19985;-64
2023/06/02 06:28:21;;;;;;;;;;;20.90;99.90;;;;;;5091781;28;19981;-65
2023/06/02 06:30:48;;;;;;;;;;;21.20;99.90;;;;;;5091923;28;20048;-65
2023/06/02 06:33:14;;;;;;;;;;;21.50;99.90;;;;;;5092070;28;20008;-62
2023/06/02 06:35:39;;;;;;;;;;;21.70;99.90;;;;;;5093126;28;19982;-66
2023/06/02 06:38:05;;;;;;;;;;;21.80;99.90;;;;;;5092373;28;20024;-63
2023/06/02 06:40:31;;;;;;;;;;;21.90;99.90;;;;;;5092085;28;19985;-63
2023/06/02 06:42:57;;;;;;;;;;;22.10;99.90;;;;;;5093183;28;19981;-64
2023/06/02 06:45:23;;;;;;;;;;;22.10;99.90;;;;;;5093100;28;19985;-66
2023/06/02 06:47:50;;;;;;;;;;;22.20;99.90;;;;;;5090406;28;20004;-63
2023/06/02 06:50:15;;;;;;;;;;;22.30;99.90;;;;;;5092757;28;19981;-65
2023/06/02 06:52:41;;;;;;;;;;;22.20;99.90;;;;;;5091743;28;19988;-63
2023/06/02 06:55:07;;;;;;;;;;;22.20;99.90;;;;;;5092973;28;19981;-63
2023/06/02 06:57:32;;;;;;;;;;;22.20;99.90;;;;;;5089328;28;20467;-65
2023/06/02 06:59:58;;;;;;;;;;;22.20;99.90;;;;;;5085000;28;20049;-66
2023/06/02 07:02:23;;;;;;;;;;;22.20;99.90;;;;;;5089990;28;19996;-62
2023/06/02 07:04:49;;;;;;;;;;;22.40;99.90;;;;;;5085198;28;19996;-63
2023/06/02 07:07:14;;;;;;;;;;;22.70;99.90;;;;;;5081479;28;19985;-62
2023/06/02 07:09:40;;;;;;;;;;;22.90;99.90;;;;;;5075176;28;19989;-64
2023/06/02 07:12:06;;;;;;;;;;;23.00;99.90;;;;;;5070362;28;19997;-63
2023/06/02 07:14:32;;;;;;;;;;;23.10;99.90;;;;;;5074537;28;20009;-63
2023/06/02 07:16:59;;;;;;;;;;;23.10;99.90;;;;;;5090326;28;19991;-62
2023/06/02 07:19:25;;;;;;;;;;;23.00;99.90;;;;;;5091846;28;19982;-64
2023/06/02 07:21:51;;;;;;;;;;;23.00;99.90;;;;;;5089119;28;19985;-65
2023/06/02 07:24:17;;;;;;;;;;;23.20;99.90;;;;;;5073378;28;19988;-62
2023/06/02 07:26:42;;;;;;;;;;;23.20;99.90;;;;;;5075086;28;19989;-64
2023/06/02 07:29:08;;;;;;;;;;;23.20;99.90;;;;;;5076078;28;19985;-63
2023/06/02 07:31:33;;;;;;;;;;;23.30;99.90;;;;;;5076293;28;19985;-64
2023/06/02 07:33:59;;;;;;;;;;;23.50;99.90;;;;;;5082786;28;20031;-61
2023/06/02 07:36:25;;;;;;;;;;;23.60;99.90;;;;;;5095994;28;20035;-63
2023/06/02 07:38:50;;;;;;;;;;;23.70;99.90;;;;;;5093528;28;19985;-65
2023/06/02 07:41:16;;;;;;;;;;;23.80;99.90;;;;;;5096354;28;20427;-63
2023/06/02 07:43:42;;;;;;;;;;;24.00;99.90;;;;;;5093144;28;19985;-63
2023/06/02 07:46:07;;;;;;;;;;;24.20;99.90;;;;;;5084291;28;20080;-62
2023/06/02 07:48:33;;;;;;;;;;;24.40;99.60;;;;;;5077570;28;20080;-64
2023/06/02 07:50:59;;;;;;;;;;;24.70;99.30;;;;;;5084035;28;19990;-63
2023/06/02 07:53:25;;;;;;;;;;;24.90;98.70;;;;;;5077410;28;20009;-62
2023/06/02 07:55:51;;;;;;;;;;;25.30;98.40;;;;;;5076508;28;19985;-62
2023/06/02 07:58:16;;;;;;;;;;;26.00;98.00;;;;;;5095300;28;20004;-63
2023/06/02 08:00:42;;;;;;;;;;;26.90;96.50;;;;;;5093727;28;20028;-62
2023/06/02 08:03:07;;;;;;;;;;;26.70;96.20;;;;;;5089205;28;19995;-63
2023/06/02 08:05:33;;;;;;;;;;;26.50;95.70;;;;;;5092998;28;20050;-62
2023/06/02 08:07:59;;;;;;;;;;;26.30;96.40;;;;;;5086640;28;20041;-63
2023/06/02 08:10:24;;;;;;;;;;;26.30;96.40;;;;;;5078331;28;20031;-63
2023/06/02 08:12:50;;;;;;;;;;;26.50;95.50;;;;;;5084497;28;20320;-64
2023/06/02 08:15:15;;;;;;;;;;;26.60;95.60;;;;;;5095955;28;20032;-66
2023/06/02 08:17:41;;;;;;;;;;;26.60;94.90;;;;;;5086861;28;19985;-64
2023/06/02 08:20:07;;;;;;;;;;;26.60;94.50;;;;;;5090584;28;20037;-62
2023/06/02 08:22:34;;;;;;;;;;;26.50;93.40;;;;;;5095958;28;20046;-63
2023/06/02 08:25:00;;;;;;;;;;;26.20;93.70;;;;;;5085641;28;19989;-61
2023/06/02 08:27:26;;;;;;;;;;;26.90;94.70;;;;;;5089188;28;20039;-62
2023/06/02 08:29:53;;;;;;;;;;;28.00;94.30;;;;;;5094485;28;20351;-64
2023/06/02 08:32:19;;;;;;;;;;;28.20;91.90;;;;;;5093212;28;19993;-63
2023/06/02 08:34:47;;;;;;;;;;;28.10;92.10;;;;;;5093581;28;20012;-63
2023/06/02 08:37:16;;;;;;;;;;;28.40;92.30;;;;;;5082716;28;20332;-64
2023/06/02 08:39:42;;;;;;;;;;;28.90;89.60;;;;;;5104860;28;20360;-63
2023/06/02 08:42:09;;;;;;;;;;;28.60;89.60;;;;;;5073641;28;20013;-63
2023/06/02 08:44:35;;;;;;;;;;;28.60;89.70;;;;;;5090266;28;20382;-63
2023/06/02 08:47:02;;;;;;;;;;;28.80;89.70;;;;;;5080769;28;20398;-64
2023/06/02 08:49:28;;;;;;;;;;;29.10;85.40;;;;;;5083529;28;19985;-63
2023/06/02 08:52:00;;;;;;;;;;;29.20;86.60;;;;;;5083250;28;19995;-63
2023/06/02 08:54:26;;;;;;;;;;;29.70;88.80;;;;;;5074865;28;20067;-64
2023/06/02 08:56:57;;;;;;;;;;;30.70;83.60;;;;;;5085650;28;19986;-62
2023/06/02 08:59:24;;;;;;;;;;;31.60;81.30;;;;;;5082402;28;20067;-64
2023/06/02 09:01:50;;;;;;;;;;;32.30;80.20;;;;;;5077951;28;20195;-65
2023/06/02 09:04:16;;;;;;;;;;;32.70;77.80;;;;;;5078057;28;20076;-64
2023/06/02 09:06:43;;;;;;;;;;;33.10;78.20;;;;;;5081085;28;19989;-65
2023/06/02 09:09:09;;;;;;;;;;;33.40;73.60;;;;;;5083062;28;20039;-66
2023/06/02 09:11:35;;;;;;;;;;;33.10;71.30;;;;;;5074446;28;19986;-64
2023/06/02 09:14:01;;;;;;;;;;;33.20;73.00;;;;;;5075378;28;20056;-65
2023/06/02 09:16:38;;;;;;;;;;;33.60;71.90;;;;;;5079451;28;19982;-65
2023/06/02 09:19:04;;;;;;;;;;;33.80;69.20;;;;;;5083043;28;19989;-64
2023/06/02 09:21:32;;;;;;;;;;;34.10;67.20;;;;;;5088192;28;20439;-66
2023/06/02 09:23:58;;;;;;;;;;;34.40;65.90;;;;;;5091512;28;19993;-65
2023/06/02 09:26:25;;;;;;;;;;;34.90;66.10;;;;;;5079064;28;20031;-66
2023/06/02 09:29:05;;;;;;;;;;;35.20;64.10;;;;;;5080877;28;19985;-66
2023/06/02 09:31:45;;;;;;;;;;;35.20;62.40;;;;;;5078363;28;20029;-63
2023/06/02 09:34:12;;;;;;;;;;;35.30;62.00;;;;;;5083195;28;20009;-66
2023/06/02 09:36:38;;;;;;;;;;;35.10;59.80;;;;;;5088392;28;20367;-66
2023/06/02 09:39:05;;;;;;;;;;;35.20;63.10;;;;;;5086982;28;20332;-64
2023/06/02 09:41:31;;;;;;;;;;;35.20;59.60;;;;;;5083778;28;20383;-66
2023/06/02 09:43:56;;;;;;;;;;;35.20;60.60;;;;;;5081798;28;20007;-64
2023/06/02 09:46:23;;;;;;;;;;;35.50;58.60;;;;;;5077998;28;19989;-64
2023/06/02 09:48:55;;;;;;;;;;;35.50;61.90;;;;;;5077932;28;20461;-67
2023/06/02 09:51:23;;;;;;;;;;;35.30;60.20;;;;;;5085259;28;21780;-63
2023/06/02 09:54:16;;;;;;;;;;;34.70;56.50;;;;;;5092443;28;20405;-62
2023/06/02 09:56:41;;;;;;;;;;;34.00;60.70;;;;;;5064175;28;20494;-62
2023/06/02 09:59:08;;;;;;;;;;;33.10;64.40;;;;;;5068421;28;20001;-63
2023/06/02 10:01:36;;;;;;;;;;;32.10;65.60;;;;;;5065842;28;20017;-63
2023/06/02 10:04:02;;;;;;;;;;;31.40;65.30;;;;;;5068446;28;20473;-62
2023/06/02 10:06:46;;;;;;;;;;;30.60;67.00;;;;;;5069458;28;19985;-64
2023/06/02 10:09:15;;;;;;;;;;;30.10;67.80;;;;;;5065357;28;20085;-64
2023/06/02 10:11:40;;;;;;;;;;;29.50;68.70;;;;;;5067921;28;20021;-62
2023/06/02 10:14:18;;;;;;;;;;;29.30;70.20;;;;;;5071039;28;20103;-62
2023/06/02 10:17:02;;;;;;;;;;;29.00;71.50;;;;;;5071167;28;19985;-60
2023/06/02 10:19:36;;;;;;;;;;;28.80;72.70;;;;;;5070738;28;19988;-62
2023/06/02 10:22:02;;;;;;;;;;;28.50;73.60;;;;;;5086344;28;20504;-62
2023/06/02 10:24:46;;;;;;;;;;;28.20;78.20;;;;;;5092546;28;19981;-62
2023/06/02 10:27:21;;;;;;;;;;;27.70;80.40;;;;;;5092624;28;20019;-62
2023/06/02 10:29:50;;;;;;;;;;;27.20;87.00;;;;;;5081506;28;19998;-64
2023/06/02 10:32:23;;;;;;;;;;;26.50;91.30;;;;;;5086066;28;19996;-62
2023/06/02 10:34:52;;;;;;;;;;;26.00;94.30;;;;;;5080231;28;20012;-61
2023/06/02 10:37:19;;;;;;;;;;;25.50;94.70;;;;;;5078473;28;19993;-62
2023/06/02 10:39:44;;;;;;;;;;;25.10;97.40;;;;;;5088871;28;20046;-63
2023/06/02 10:42:11;;;;;;;;;;;24.80;97.50;;;;;;5088217;28;19985;-64
2023/06/02 10:44:37;;;;;;;;;;;24.50;98.60;;;;;;5087111;28;20403;-63
2023/06/02 10:47:31;;;;;;;;;;;24.40;99.10;;;;;;5089046;28;19985;-64
2023/06/02 10:50:21;;;;;;;;;;;24.20;99.30;;;;;;5080463;28;20248;-63
2023/06/02 10:52:58;;;;;;;;;;;24.10;99.40;;;;;;5090888;28;19981;-64
2023/06/02 10:55:26;;;;;;;;;;;24.00;99.10;;;;;;5087306;28;20076;-62
2023/06/02 10:57:52;;;;;;;;;;;23.90;98.80;;;;;;5075876;28;20504;-63
2023/06/02 11:00:39;;;;;;;;;;;24.00;98.50;;;;;;5074023;28;20025;-63
2023/06/02 11:03:25;;;;;;;;;;;23.30;99.90;;;;;;5094839;28;20028;-64
2023/06/02 11:06:11;;;;;;;;;;;22.90;99.90;;;;;;5093944;28;20454;-62
2023/06/02 11:08:36;;;;;;;;;;;23.10;99.90;;;;;;5092366;28;19981;-62
2023/06/02 11:11:02;;;;;;;;;;;22.90;99.90;;;;;;5092597;28;20045;-62
2023/06/02 11:13:28;;;;;;;;;;;22.80;99.90;;;;;;5096396;28;20009;-66
2023/06/02 11:15:53;;;;;;;;;;;22.90;99.90;;;;;;5086974;28;20506;-67
2023/06/02 11:18:22;;;;;;;;;;;23.10;99.90;;;;;;5094924;28;20524;-61
2023/06/02 11:20:57;;;;;;;;;;;23.10;99.90;;;;;;5080462;28;19985;-65
2023/06/02 11:23:23;;;;;;;;;;;23.00;99.90;;;;;;5074732;28;19989;-66
2023/06/02 11:26:04;;;;;;;;;;;22.80;99.90;;;;;;5072713;28;19987;-60
2023/06/02 11:28:30;;;;;;;;;;;22.80;99.90;;;;;;5072375;28;19980;-64
2023/06/02 11:31:06;;;;;;;;;;;22.80;99.90;;;;;;5072968;28;19981;-63
2023/06/02 11:33:33;;;;;;;;;;;22.70;99.90;;;;;;5073107;28;20080;-64
2023/06/02 11:35:59;;;;;;;;;;;22.50;99.90;;;;;;5072190;28;20608;-64
2023/06/02 11:38:27;;;;;;;;;;;22.30;99.90;;;;;;5072271;28;19989;-62
2023/06/02 11:40:52;;;;;;;;;;;22.20;99.90;;;;;;5072830;28;20086;-61
2023/06/02 11:43:21;;;;;;;;;;;22.30;99.90;;;;;;5073630;28;20124;-64
2023/06/02 11:45:46;;;;;;;;;;;22.20;99.90;;;;;;5073847;28;19985;-66
2023/06/02 11:48:12;;;;;;;;;;;21.90;99.90;;;;;;5074769;28;19993;-65
2023/06/02 11:50:38;;;;;;;;;;;21.60;99.90;;;;;;5072890;28;19985;-63
2023/06/02 11:53:10;;;;;;;;;;;21.40;99.90;;;;;;5074836;28;20104;-63
2023/06/02 11:55:36;;;;;;;;;;;21.40;99.90;;;;;;5076141;28;19982;-64
2023/06/02 11:58:18;;;;;;;;;;;21.40;99.90;;;;;;5076164;28;19992;-62
2023/06/02 12:00:44;;;;;;;;;;;21.20;99.90;;;;;;5073933;28;20395;-66
2023/06/02 12:03:12;;;;;;;;;;;21.10;99.90;;;;;;5074775;28;20100;-65
2023/06/02 12:05:42;;;;;;;;;;;21.00;99.90;;;;;;5074901;28;19982;-65
2023/06/02 12:08:08;;;;;;;;;;;21.10;99.90;;;;;;5073168;28;20299;-61
2023/06/02 12:10:34;;;;;;;;;;;21.20;99.90;;;;;;5072248;28;20083;-62
2023/06/02 12:12:59;;;;;;;;;;;21.30;99.90;;;;;;5072140;28;20039;-62
2023/06/02 12:15:32;;;;;;;;;;;21.40;99.90;;;;;;5071475;28;19986;-63
2023/06/02 12:17:59;;;;;;;;;;;21.40;99.90;;;;;;5071924;28;19995;-65
2023/06/02 12:20:33;;;;;;;;;;;21.40;99.90;;;;;;5091427;28;19990;-63
2023/06/02 12:22:58;;;;;;;;;;;21.30;99.90;;;;;;5092841;28;20237;-63
2023/06/02 12:25:24;;;;;;;;;;;21.20;99.90;;;;;;5094245;28;19981;-64
2023/06/02 12:27:50;;;;;;;;;;;21.10;99.90;;;;;;5094518;28;20030;-64
2023/06/02 12:30:16;;;;;;;;;;;21.00;99.90;;;;;;5093469;28;19985;-63
2023/06/02 12:32:41;;;;;;;;;;;21.00;99.90;;;;;;5093301;28;20352;-63
2023/06/02 12:35:07;;;;;;;;;;;20.90;99.90;;;;;;5093624;28;20046;-66
2023/06/02 12:37:32;;;;;;;;;;;20.90;99.90;;;;;;5094039;28;20031;-64
2023/06/02 12:39:58;;;;;;;;;;;21.00;99.90;;;;;;5094142;28;20514;-64
2023/06/02 12:42:23;;;;;;;;;;;21.10;99.90;;;;;;5094077;28;19988;-65
2023/06/02 12:44:49;;;;;;;;;;;21.20;99.90;;;;;;5094763;28;19993;-62
2023/06/02 12:47:17;;;;;;;;;;;21.40;99.90;;;;;;5094648;28;20343;-65
2023/06/02 12:49:47;;;;;;;;;;;21.60;99.90;;;;;;5094640;28;20462;-64
2023/06/02 12:52:16;;;;;;;;;;;21.80;99.90;;;;;;5094409;28;19986;-64
2023/06/02 12:54:41;;;;;;;;;;;21.90;99.90;;;;;;5094444;28;20541;-63
2023/06/02 12:57:08;;;;;;;;;;;22.00;99.90;;;;;;5094484;28;20122;-64
2023/06/02 12:59:34;;;;;;;;;;;21.90;99.90;;;;;;5094634;28;20012;-65
2023/06/02 13:01:59;;;;;;;;;;;21.90;99.90;;;;;;5022713;28;2036551;-61
2023/06/02 13:04:25;;;;;;;;;;;22.00;99.90;;;;;;5095099;28;20514;-63
2023/06/02 13:06:51;;;;;;;;;;;22.20;99.90;;;;;;5095124;28;19988;-62
2023/06/02 13:09:17;;;;;;;;;;;22.40;99.90;;;;;;5095311;28;20012;-63
2023/06/02 13:11:42;;;;;;;;;;;22.60;99.90;;;;;;5095217;28;20019;-65
2023/06/02 13:14:09;;;;;;;;;;;22.70;99.90;;;;;;5094081;28;20435;-65
2023/06/02 13:16:35;;;;;;;;;;;22.80;99.90;;;;;;5095322;28;20339;-61
2023/06/02 13:19:00;;;;;;;;;;;23.10;99.90;;;;;;5094882;28;19992;-63
2023/06/02 13:21:26;;;;;;;;;;;23.30;99.90;;;;;;5094880;28;20017;-64
2023/06/02 13:23:52;;;;;;;;;;;23.50;99.90;;;;;;5095037;28;19981;-61
2023/06/02 13:26:18;;;;;;;;;;;23.70;99.90;;;;;;5094962;28;19989;-64
2023/06/02 13:28:44;;;;;;;;;;;23.90;99.90;;;;;;5094733;28;19981;-61
2023/06/02 13:31:11;;;;;;;;;;;24.00;99.90;;;;;;5094911;28;20027;-64
2023/06/02 13:33:37;;;;;;;;;;;24.10;99.90;;;;;;5094626;28;20009;-65
2023/06/02 13:36:02;;;;;;;;;;;24.20;99.90;;;;;;5094670;28;19985;-63
2023/06/02 13:38:28;;;;;;;;;;;24.20;99.90;;;;;;5094633;28;19985;-61
2023/06/02 13:40:53;;;;;;;;;;;24.20;99.90;;;;;;5094553;28;19982;-65
2023/06/02 13:43:19;;;;;;;;;;;24.20;99.90;;;;;;5094656;28;20015;-65
2023/06/02 13:45:44;;;;;;;;;;;24.20;99.90;;;;;;5094699;28;19985;-63
2023/06/02 13:48:10;;;;;;;;;;;24.20;99.90;;;;;;5094843;28;19985;-62
2023/06/02 13:50:36;;;;;;;;;;;24.30;99.90;;;;;;5094467;28;20021;-65
2023/06/02 13:53:02;;;;;;;;;;;24.30;99.90;;;;;;5094225;28;19985;-63
2023/06/02 13:55:28;;;;;;;;;;;24.40;99.90;;;;;;5094583;28;20072;-62
2023/06/02 13:57:54;;;;;;;;;;;24.60;99.90;;;;;;5094412;28;19981;-63
2023/06/02 14:00:20;;;;;;;;;;;24.70;99.90;;;;;;5093920;28;20493;-61
2023/06/02 14:02:46;;;;;;;;;;;24.80;99.70;;;;;;5094079;28;19985;-61
2023/06/02 14:05:11;;;;;;;;;;;24.90;99.60;;;;;;5094315;28;20352;-64
2023/06/02 14:07:37;;;;;;;;;;;25.00;99.50;;;;;;5094218;28;19981;-63
2023/06/02 14:10:03;;;;;;;;;;;25.10;96.90;;;;;;5094414;28;20454;-65
2023/06/02 14:12:29;;;;;;;;;;;25.10;96.40;;;;;;5094068;28;20465;-61
2023/06/02 14:14:54;;;;;;;;;;;25.20;96.80;;;;;;5093957;28;20053;-66